createdAt,value
2023-01-26T00:00:49.174Z,101278.56
2023-01-26T00:03:17.170Z,101270.38
2023-01-26T00:05:43.851Z,101269.88
2023-01-26T00:08:10.443Z,101267.81
2023-01-26T00:10:38.032Z,101264.75
2023-01-26T00:13:04.823Z,101257.31
2023-01-26T00:15:32.209Z,101257.25
2023-01-26T00:17:59.286Z,101244.59
2023-01-26T00:20:27.776Z,101240.53
2023-01-26T00:22:54.456Z,101247.41
2023-01-26T00:25:21.663Z,101244.59
2023-01-26T00:27:48.334Z,101237.38
2023-01-26T00:30:15.520Z,101234.06
2023-01-26T00:32:41.986Z,101227.94
2023-01-26T00:35:09.137Z,101230.59
2023-01-26T00:37:37.044Z,101218.75
2023-01-26T00:40:04.096Z,101222.09
2023-01-26T00:42:30.918Z,101218.19
2023-01-26T00:44:57.432Z,101218.78
2023-01-26T00:47:23.927Z,101210.47
2023-01-26T00:49:50.522Z,101208.53
2023-01-26T00:52:17.094Z,101216.81
2023-01-26T00:54:44.904Z,101202.38
2023-01-26T00:57:11.486Z,101198.47
2023-01-26T00:59:37.987Z,101207.03
2023-01-26T01:02:04.555Z,101193.72
2023-01-26T01:04:31.414Z,101185.78
2023-01-26T01:06:58.359Z,101188.25
2023-01-26T01:09:25.242Z,101181.75
2023-01-26T01:11:53.171Z,101183.06
2023-01-26T01:14:19.967Z,101186.50
2023-01-26T01:16:46.541Z,101185.88
2023-01-26T01:19:14.074Z,101180.16
2023-01-26T01:21:40.613Z,101173.44
2023-01-26T01:24:07.755Z,101178.34
2023-01-26T01:26:34.270Z,101173.19
2023-01-26T01:29:02.419Z,101166.13
2023-01-26T01:31:29.189Z,101170.59
2023-01-26T01:33:56.257Z,101169.38
2023-01-26T01:36:23.340Z,101165.84
2023-01-26T01:38:50.309Z,101170.59
2023-01-26T01:41:21.460Z,101162.53
2023-01-26T01:43:48.000Z,101161.22
2023-01-26T01:46:28.390Z,101168.53
2023-01-26T01:48:59.491Z,101164.63
2023-01-26T01:51:33.086Z,101165.31
2023-01-26T01:54:05.392Z,101161.06
2023-01-26T01:56:34.268Z,101164.84
2023-01-26T01:59:05.737Z,101170.72
2023-01-26T02:01:33.786Z,101167.81
2023-01-26T02:04:04.676Z,101172.19
2023-01-26T02:06:35.172Z,101169.50
2023-01-26T02:09:04.218Z,101162.16
2023-01-26T02:11:35.811Z,101161.69
2023-01-26T02:14:04.821Z,101162.75
2023-01-26T02:16:32.899Z,101154.94
2023-01-26T02:18:59.756Z,101157.16
2023-01-26T02:21:27.162Z,101157.53
2023-01-26T02:24:06.283Z,101153.25
2023-01-26T02:26:36.529Z,101155.78
2023-01-26T02:29:06.309Z,101150.56
2023-01-26T02:31:32.846Z,101149.69
2023-01-26T02:33:59.534Z,101154.47
2023-01-26T02:36:27.811Z,101157.41
2023-01-26T02:39:14.529Z,101152.88
2023-01-26T02:41:42.516Z,101150.94
2023-01-26T02:44:10.707Z,101153.72
2023-01-26T02:46:37.522Z,101153.25
2023-01-26T02:49:04.337Z,101163.47
2023-01-26T02:51:31.023Z,101150.88
2023-01-26T02:53:57.701Z,101148.94
2023-01-26T02:56:24.506Z,101149.47
2023-01-26T02:58:53.622Z,101143.72
2023-01-26T03:01:20.412Z,101148.88
2023-01-26T03:03:47.038Z,101140.88
2023-01-26T03:06:13.995Z,101143.97
2023-01-26T03:08:41.420Z,101141.00
2023-01-26T03:11:09.100Z,101148.56
2023-01-26T03:13:35.653Z,101139.72
2023-01-26T03:16:06.967Z,101147.13
2023-01-26T03:18:34.634Z,101148.22
2023-01-26T03:21:02.247Z,101139.91
2023-01-26T03:23:28.852Z,101147.38
2023-01-26T03:25:56.779Z,101148.75
2023-01-26T03:28:23.331Z,101155.94
2023-01-26T03:30:50.556Z,101152.44
2023-01-26T03:33:19.265Z,101144.59
2023-01-26T03:35:46.588Z,101152.03
2023-01-26T03:38:13.576Z,101141.53
2023-01-26T03:40:40.109Z,101145.69
2023-01-26T03:43:08.264Z,101143.78
2023-01-26T03:45:35.022Z,101141.47
2023-01-26T03:48:06.598Z,101137.25
2023-01-26T03:50:34.548Z,101135.81
2023-01-26T03:53:01.307Z,101137.53
2023-01-26T03:55:27.819Z,101140.16
2023-01-26T03:57:54.350Z,101143.53
2023-01-26T04:00:21.039Z,101143.13
2023-01-26T04:02:47.629Z,101146.97
2023-01-26T04:05:14.362Z,101151.09
2023-01-26T04:07:42.200Z,101148.53
2023-01-26T04:10:10.194Z,101144.56
2023-01-26T04:12:36.922Z,101146.09
2023-01-26T04:15:03.823Z,101148.63
2023-01-26T04:17:30.321Z,101147.28
2023-01-26T04:19:56.940Z,101151.81
2023-01-26T04:22:23.736Z,101153.88
2023-01-26T04:24:51.554Z,101147.34
2023-01-26T04:27:18.071Z,101147.81
2023-01-26T04:29:44.637Z,101149.84
2023-01-26T04:32:11.312Z,101154.88
2023-01-26T04:34:37.812Z,101150.38
2023-01-26T04:37:04.459Z,101154.38
2023-01-26T04:39:31.044Z,101151.59
2023-01-26T04:41:58.921Z,101149.41
2023-01-26T04:44:25.456Z,101151.88
2023-01-26T04:46:51.972Z,101152.72
2023-01-26T04:49:18.474Z,101150.28
2023-01-26T04:51:44.985Z,101147.34
2023-01-26T04:54:11.636Z,101143.69
2023-01-26T04:56:38.111Z,101149.75
2023-01-26T04:59:07.879Z,101147.78
2023-01-26T05:01:34.655Z,101143.66
2023-01-26T05:04:02.690Z,101143.13
2023-01-26T05:06:29.545Z,101146.50
2023-01-26T05:08:56.955Z,101152.28
2023-01-26T05:11:23.493Z,101156.25
2023-01-26T05:13:50.049Z,101154.84
2023-01-26T05:16:17.942Z,101159.03
2023-01-26T05:18:44.458Z,101147.28
2023-01-26T05:21:11.471Z,101145.50
2023-01-26T05:23:38.431Z,101152.47
2023-01-26T05:26:05.315Z,101146.50
2023-01-26T05:28:31.938Z,101153.81
2023-01-26T05:30:58.456Z,101151.44
2023-01-26T05:33:26.311Z,101156.22
2023-01-26T05:35:53.763Z,101145.41
2023-01-26T05:38:20.721Z,101152.69
2023-01-26T05:40:47.568Z,101151.41
2023-01-26T05:43:14.120Z,101148.06
2023-01-26T05:45:41.022Z,101154.19
2023-01-26T05:48:07.540Z,101152.47
2023-01-26T05:50:35.398Z,101150.44
2023-01-26T05:53:01.928Z,101151.47
2023-01-26T05:55:28.476Z,101152.94
2023-01-26T05:57:55.116Z,101166.59
2023-01-26T06:00:22.256Z,101158.94
2023-01-26T06:02:48.849Z,101165.53
2023-01-26T06:05:15.735Z,101168.25
2023-01-26T06:07:43.531Z,101165.84
2023-01-26T06:10:11.283Z,101172.00
2023-01-26T06:12:38.333Z,101178.13
2023-01-26T06:15:05.671Z,101175.47
2023-01-26T06:17:32.393Z,101172.25
2023-01-26T06:19:58.939Z,101167.66
2023-01-26T06:22:25.495Z,101173.34
2023-01-26T06:24:53.371Z,101173.25
2023-01-26T06:27:19.995Z,101175.34
2023-01-26T06:29:46.626Z,101172.53
2023-01-26T06:32:14.050Z,101177.59
2023-01-26T06:34:41.115Z,101176.53
2023-01-26T06:37:07.771Z,101176.63
2023-01-26T06:39:34.404Z,101190.78
2023-01-26T06:42:02.351Z,101189.34
2023-01-26T06:44:28.948Z,101198.38
2023-01-26T06:46:55.496Z,101199.56
2023-01-26T06:49:22.055Z,101209.00
2023-01-26T06:51:55.867Z,101202.13
2023-01-26T06:54:22.604Z,101198.09
2023-01-26T06:56:49.245Z,101195.44
2023-01-26T06:59:17.082Z,101209.31
2023-01-26T07:01:46.216Z,101195.38
2023-01-26T07:04:12.779Z,101201.06
2023-01-26T07:06:39.302Z,101202.91
2023-01-26T07:09:06.255Z,101209.59
2023-01-26T07:11:32.779Z,101216.44
2023-01-26T07:13:59.483Z,101214.13
2023-01-26T07:16:27.554Z,101209.53
2023-01-26T07:18:54.332Z,101213.09
2023-01-26T07:21:21.340Z,101217.03
2023-01-26T07:23:47.943Z,101216.97
2023-01-26T07:26:14.751Z,101215.00
2023-01-26T07:28:41.346Z,101221.28
2023-01-26T07:31:10.391Z,101228.44
2023-01-26T07:33:38.504Z,101224.16
2023-01-26T07:36:05.563Z,101230.91
2023-01-26T07:38:32.898Z,101229.19
2023-01-26T07:40:59.495Z,101230.16
2023-01-26T07:43:26.045Z,101238.09
2023-01-26T07:45:54.436Z,101242.63
2023-01-26T07:48:23.784Z,101239.06
2023-01-26T07:50:51.742Z,101240.81
2023-01-26T07:53:19.241Z,101251.25
2023-01-26T07:55:46.062Z,101258.31
2023-01-26T07:58:12.936Z,101259.25
2023-01-26T08:00:39.517Z,101265.63
2023-01-26T08:03:06.595Z,101268.78
2023-01-26T08:05:35.431Z,101270.38
2023-01-26T08:08:14.736Z,101279.22
2023-01-26T08:16:06.440Z,101279.78
2023-01-26T08:18:33.190Z,101291.91
2023-01-26T08:20:59.823Z,101289.31
2023-01-26T08:23:27.863Z,101284.50
2023-01-26T08:25:54.637Z,101283.47
2023-01-26T08:28:21.655Z,101290.94
2023-01-26T08:30:48.412Z,101295.94
2023-01-26T08:33:15.057Z,101300.22
2023-01-26T08:35:42.118Z,101299.63
2023-01-26T08:38:08.829Z,101302.47
2023-01-26T08:40:36.715Z,101312.44
2023-01-26T08:43:03.768Z,101319.91
2023-01-26T08:45:31.879Z,101323.81
2023-01-26T08:47:58.670Z,101321.34
2023-01-26T08:50:26.566Z,101329.66
2023-01-26T08:52:56.209Z,101326.41
2023-01-26T08:55:23.056Z,101331.44
2023-01-26T08:57:53.981Z,101342.78
2023-01-26T09:00:22.541Z,101345.91
2023-01-26T09:02:49.326Z,101352.03
2023-01-26T09:05:16.179Z,101365.00
2023-01-26T09:07:42.973Z,101360.56
2023-01-26T09:10:10.834Z,101358.44
2023-01-26T09:12:40.084Z,101370.97
2023-01-26T09:15:10.493Z,101371.44
2023-01-26T09:17:37.302Z,101384.28
2023-01-26T09:20:04.299Z,101380.47
2023-01-26T09:22:31.008Z,101370.16
2023-01-26T09:24:57.706Z,101363.34
2023-01-26T09:27:24.439Z,101379.53
2023-01-26T09:29:51.222Z,101371.69
2023-01-26T09:32:19.576Z,101384.41
2023-01-26T09:34:46.219Z,101373.84
2023-01-26T09:37:12.820Z,101380.97
2023-01-26T09:39:39.512Z,101363.78
2023-01-26T09:42:25.554Z,101368.25
2023-01-26T09:45:12.646Z,101362.53
2023-01-26T09:47:55.418Z,101360.31
2023-01-26T09:50:26.752Z,101362.63
2023-01-26T09:52:57.076Z,101363.09
2023-01-26T09:55:24.665Z,101363.81
2023-01-26T09:57:54.521Z,101360.47
2023-01-26T10:00:25.862Z,101377.25
2023-01-26T10:03:10.034Z,101383.16
2023-01-26T10:05:40.302Z,101379.41
2023-01-26T10:08:11.553Z,101389.75
2023-01-26T10:10:41.309Z,101392.44
2023-01-26T10:13:12.860Z,101391.91
2023-01-26T10:15:42.506Z,101405.25
2023-01-26T10:18:17.458Z,101404.63
2023-01-26T10:20:49.216Z,101409.06
2023-01-26T10:23:20.804Z,101415.16
2023-01-26T10:25:47.895Z,101412.09
2023-01-26T10:28:17.116Z,101408.31
2023-01-26T10:30:45.234Z,101417.56
2023-01-26T10:33:16.726Z,101402.81
2023-01-26T10:35:43.647Z,101397.50
2023-01-26T10:38:30.002Z,101400.78
2023-01-26T10:40:59.867Z,101406.56
2023-01-26T10:43:26.576Z,101405.56
2023-01-26T10:45:53.186Z,101401.06
2023-01-26T10:48:23.658Z,101406.34
2023-01-26T10:50:51.067Z,101399.78
2023-01-26T10:53:22.478Z,101401.72
2023-01-26T10:56:00.746Z,101397.75
2023-01-26T10:58:44.645Z,101393.34
2023-01-26T11:01:12.513Z,101384.28
2023-01-26T11:03:41.103Z,101383.22
2023-01-26T11:06:13.395Z,101382.81
2023-01-26T11:08:40.331Z,101377.00
2023-01-26T11:11:23.481Z,101371.34
2023-01-26T11:14:09.899Z,101373.53
2023-01-26T11:16:37.036Z,101369.50
2023-01-26T11:19:12.988Z,101374.38
2023-01-26T11:21:46.046Z,101378.19
2023-01-26T11:24:16.166Z,101385.63
2023-01-26T11:27:05.884Z,101387.16
2023-01-26T11:29:52.166Z,101384.41
2023-01-26T11:32:30.130Z,101392.59
2023-01-26T11:35:09.909Z,101396.66
2023-01-26T11:37:42.333Z,101393.09
2023-01-26T11:40:21.551Z,101378.22
2023-01-26T11:42:59.661Z,101381.66
2023-01-26T11:45:31.179Z,101388.13
2023-01-26T11:48:12.895Z,101381.97
2023-01-26T11:50:46.635Z,101373.00
2023-01-26T11:53:30.671Z,101364.97
2023-01-26T11:56:10.054Z,101369.91
2023-01-26T11:58:41.246Z,101366.81
2023-01-26T12:01:16.466Z,101365.88
2023-01-26T12:03:47.513Z,101368.03
2023-01-26T12:06:18.943Z,101366.91
2023-01-26T12:08:51.579Z,101372.00
2023-01-26T12:11:23.737Z,101359.78
2023-01-26T12:14:01.037Z,101353.78
2023-01-26T12:16:35.463Z,101353.84
2023-01-26T12:19:11.527Z,101363.53
2023-01-26T12:21:44.098Z,101362.41
2023-01-26T12:24:43.492Z,101355.31
2023-01-26T12:27:08.558Z,101359.78
2023-01-26T12:29:45.163Z,101363.94
2023-01-26T12:32:14.751Z,101357.09
2023-01-26T12:34:41.458Z,101349.44
2023-01-26T12:37:37.181Z,101353.03
2023-01-26T12:40:15.032Z,101346.19
2023-01-26T12:42:48.029Z,101349.41
2023-01-26T12:45:20.205Z,101361.00
2023-01-26T12:47:51.085Z,101352.81
2023-01-26T12:50:26.577Z,101350.44
2023-01-26T12:52:59.931Z,101349.47
2023-01-26T12:55:31.051Z,101352.69
2023-01-26T12:58:00.973Z,101349.47
2023-01-26T13:00:31.549Z,101353.00
2023-01-26T13:03:03.531Z,101360.22
2023-01-26T13:05:31.969Z,101356.69
2023-01-26T13:08:34.615Z,101351.31
2023-01-26T13:11:02.633Z,101354.88
2023-01-26T13:13:31.938Z,101350.22
2023-01-26T13:16:18.418Z,101349.38
2023-01-26T13:18:50.707Z,101345.72
2023-01-26T13:21:26.663Z,101342.78
2023-01-26T13:23:55.412Z,101360.03
2023-01-26T13:26:41.661Z,101337.28
2023-01-26T13:29:30.157Z,101337.91
2023-01-26T13:31:57.829Z,101336.44
2023-01-26T13:34:28.383Z,101331.19
2023-01-26T13:36:58.566Z,101327.06
2023-01-26T13:39:31.047Z,101323.09
2023-01-26T13:41:57.966Z,101318.22
2023-01-26T13:44:35.955Z,101323.28
2023-01-26T13:47:09.122Z,101323.69
2023-01-26T13:49:39.306Z,101319.72
2023-01-26T13:52:16.719Z,101319.53
2023-01-26T13:54:46.361Z,101329.94
2023-01-26T13:57:21.172Z,101318.97
2023-01-26T13:59:48.898Z,101329.84
2023-01-26T14:02:22.129Z,101322.38
2023-01-26T14:04:52.200Z,101327.22
2023-01-26T14:07:20.395Z,101325.66
2023-01-26T14:09:50.553Z,101319.41
2023-01-26T14:12:20.597Z,101323.25
2023-01-26T14:14:48.615Z,101330.94
2023-01-26T14:17:25.883Z,101327.03
2023-01-26T14:19:52.654Z,101334.00
2023-01-26T14:22:21.322Z,101339.03
2023-01-26T14:24:52.029Z,101339.03
2023-01-26T14:27:30.376Z,101341.94
2023-01-26T14:29:57.525Z,101334.97
2023-01-26T14:32:24.691Z,101339.00
2023-01-26T14:34:52.963Z,101336.09
2023-01-26T14:37:19.622Z,101345.88
2023-01-26T14:40:10.991Z,101350.53
2023-01-26T14:42:39.882Z,101353.94
2023-01-26T14:45:12.024Z,101354.75
2023-01-26T14:47:40.178Z,101355.25
2023-01-26T14:50:13.796Z,101359.09
2023-01-26T14:52:43.463Z,101359.22
2023-01-26T14:55:21.234Z,101355.06
2023-01-26T14:57:48.115Z,101355.69
2023-01-26T15:00:25.515Z,101359.41
2023-01-26T15:02:54.700Z,101355.16
2023-01-26T15:05:23.519Z,101363.47
2023-01-26T15:07:54.617Z,101363.63
2023-01-26T15:10:35.054Z,101365.19
2023-01-26T15:13:05.943Z,101362.88
2023-01-26T15:15:35.246Z,101379.09
2023-01-26T15:18:05.965Z,101380.13
2023-01-26T15:20:43.312Z,101377.22
2023-01-26T15:23:21.818Z,101374.16
2023-01-26T15:25:50.252Z,101381.44
2023-01-26T15:28:19.317Z,101376.16
2023-01-26T15:30:48.790Z,101387.69
2023-01-26T15:33:38.769Z,101382.75
2023-01-26T15:36:06.450Z,101394.41
2023-01-26T15:38:33.146Z,101396.44
2023-01-26T15:41:00.973Z,101402.75
2023-01-26T15:43:27.498Z,101399.50
2023-01-26T15:45:55.823Z,101398.00
2023-01-26T15:48:23.894Z,101399.50
2023-01-26T15:50:51.014Z,101389.56
2023-01-26T15:53:19.988Z,101396.47
2023-01-26T15:55:47.612Z,101395.53
2023-01-26T15:58:15.494Z,101390.81
2023-01-26T16:00:42.221Z,101384.53
2023-01-26T16:03:13.814Z,101386.81
2023-01-26T16:05:40.660Z,101384.22
2023-01-26T16:08:07.211Z,101385.75
2023-01-26T16:10:33.797Z,101379.41
2023-01-26T16:13:00.719Z,101384.53
2023-01-26T16:15:36.992Z,101387.59
2023-01-26T16:18:03.729Z,101393.38
2023-01-26T16:20:30.394Z,101399.22
2023-01-26T16:22:57.125Z,101393.88
2023-01-26T16:25:26.301Z,101406.22
2023-01-26T16:27:53.006Z,101404.50
2023-01-26T16:30:20.302Z,101402.19
2023-01-26T16:32:48.400Z,101401.63
2023-01-26T16:35:16.582Z,101400.16
2023-01-26T16:37:43.458Z,101403.28
2023-01-26T16:40:11.829Z,101411.31
2023-01-26T16:42:40.386Z,101411.34
2023-01-26T16:45:11.135Z,101410.88
2023-01-26T16:47:37.841Z,101408.44
2023-01-26T16:50:06.111Z,101413.28
2023-01-26T16:52:33.959Z,101410.06
2023-01-26T16:55:00.629Z,101419.94
2023-01-26T16:57:27.425Z,101416.75
2023-01-26T16:59:54.172Z,101423.06
2023-01-26T17:02:24.694Z,101415.06
2023-01-26T17:04:51.769Z,101419.03
2023-01-26T17:07:19.936Z,101412.09
2023-01-26T17:09:46.622Z,101417.00
2023-01-26T17:12:13.347Z,101427.00
2023-01-26T17:14:39.949Z,101421.38
2023-01-26T17:17:06.935Z,101428.13
2023-01-26T17:19:33.882Z,101424.97
2023-01-26T17:22:00.744Z,101424.56
2023-01-26T17:24:29.082Z,101424.03
2023-01-26T17:26:55.618Z,101430.13
2023-01-26T17:29:22.345Z,101427.72
2023-01-26T17:31:48.998Z,101434.56
2023-01-26T17:34:15.807Z,101435.34
2023-01-26T17:36:45.519Z,101429.69
2023-01-26T17:39:12.697Z,101421.59
2023-01-26T17:41:40.627Z,101424.34
2023-01-26T17:44:07.210Z,101427.53
2023-01-26T17:46:33.688Z,101431.81
2023-01-26T17:49:01.363Z,101433.78
2023-01-26T17:51:27.937Z,101440.25
2023-01-26T17:53:54.486Z,101448.34
2023-01-26T17:56:21.877Z,101443.59
2023-01-26T17:58:51.547Z,101439.50
2023-01-26T18:01:19.937Z,101436.03
2023-01-26T18:03:46.681Z,101433.84
2023-01-26T18:06:13.349Z,101431.53
2023-01-26T18:08:39.962Z,101428.94
2023-01-26T18:11:08.791Z,101434.59
2023-01-26T18:13:35.774Z,101447.06
2023-01-26T18:16:05.189Z,101435.78
2023-01-26T18:18:31.847Z,101440.38
2023-01-26T18:21:09.282Z,101433.06
2023-01-26T18:23:35.856Z,101437.97
2023-01-26T18:26:02.529Z,101443.13
2023-01-26T18:28:29.163Z,101439.81
2023-01-26T18:30:55.786Z,101440.91
2023-01-26T18:33:24.134Z,101429.66
2023-01-26T18:35:50.666Z,101439.81
2023-01-26T18:38:17.325Z,101434.94
2023-01-26T18:40:43.871Z,101439.75
2023-01-26T18:43:10.405Z,101435.38
2023-01-26T18:45:40.686Z,101437.72
2023-01-26T18:48:07.378Z,101436.75
2023-01-26T18:50:35.254Z,101434.69
2023-01-26T18:53:01.781Z,101434.53
2023-01-26T18:55:28.299Z,101442.34
2023-01-26T18:57:54.805Z,101436.94
2023-01-26T19:00:21.761Z,101444.59
2023-01-26T19:02:48.291Z,101449.22
2023-01-26T19:05:15.329Z,101454.84
2023-01-26T19:07:43.293Z,101450.66
2023-01-26T19:10:10.652Z,101448.59
2023-01-26T19:12:37.270Z,101453.97
2023-01-26T19:15:04.417Z,101451.44
2023-01-26T19:17:31.112Z,101452.06
2023-01-26T19:19:57.649Z,101442.16
2023-01-26T19:22:24.167Z,101449.03
2023-01-26T19:24:52.049Z,101448.31
2023-01-26T19:27:18.598Z,101441.81
2023-01-26T19:29:45.087Z,101444.66
2023-01-26T19:32:11.724Z,101444.28
2023-01-26T19:34:38.367Z,101444.13
2023-01-26T19:37:04.880Z,101452.94
2023-01-26T19:39:31.413Z,101450.31
2023-01-26T19:41:59.578Z,101457.69
2023-01-26T19:44:26.883Z,101454.16
2023-01-26T19:46:53.864Z,101455.41
2023-01-26T19:49:21.363Z,101461.16
2023-01-26T19:51:49.153Z,101463.84
2023-01-26T19:54:16.440Z,101466.31
2023-01-26T19:56:43.709Z,101473.66
2023-01-26T19:59:12.522Z,101474.59
2023-01-26T20:01:39.786Z,101480.38
2023-01-26T20:04:08.884Z,101470.78
2023-01-26T20:06:37.197Z,101474.59
2023-01-26T20:09:05.493Z,101465.94
2023-01-26T20:11:32.075Z,101462.41
2023-01-26T20:14:01.343Z,101458.03
2023-01-26T20:16:30.011Z,101461.00
2023-01-26T20:18:57.605Z,101463.53
2023-01-26T20:21:24.801Z,101464.06
2023-01-26T20:23:55.471Z,101477.28
2023-01-26T20:26:23.628Z,101477.16
2023-01-26T20:28:50.211Z,101475.91
2023-01-26T20:31:19.002Z,101476.84
2023-01-26T20:33:48.576Z,101483.50
2023-01-26T20:36:17.345Z,101477.78
2023-01-26T20:38:44.862Z,101483.47
2023-01-26T20:41:13.882Z,101491.41
2023-01-26T20:43:46.472Z,101480.44
2023-01-26T20:46:24.225Z,101485.06
2023-01-26T20:48:54.044Z,101477.28
2023-01-26T20:51:23.723Z,101474.63
2023-01-26T20:53:50.961Z,101478.34
2023-01-26T20:56:20.613Z,101468.88
2023-01-26T20:58:47.807Z,101481.72
2023-01-26T21:01:16.407Z,101473.66
2023-01-26T21:03:43.747Z,101471.50
2023-01-26T21:06:13.772Z,101466.44
2023-01-26T21:08:41.095Z,101464.50
2023-01-26T21:11:11.465Z,101452.59
2023-01-26T21:13:38.476Z,101456.97
2023-01-26T21:16:05.188Z,101456.91
2023-01-26T21:18:31.917Z,101452.06
2023-01-26T21:21:01.331Z,101453.53
2023-01-26T21:23:29.836Z,101456.69
2023-01-26T21:25:58.862Z,101456.97
2023-01-26T21:28:25.529Z,101455.06
2023-01-26T21:30:59.079Z,101455.63
2023-01-26T21:33:25.602Z,101448.34
2023-01-26T21:35:55.959Z,101449.81
2023-01-26T21:38:22.628Z,101456.81
2023-01-26T21:40:57.970Z,101450.44
2023-01-26T21:43:24.637Z,101448.91
2023-01-26T21:45:51.418Z,101458.78
2023-01-26T21:48:18.195Z,101452.66
2023-01-26T21:50:44.948Z,101452.69
2023-01-26T21:53:11.708Z,101444.81
2023-01-26T21:55:40.778Z,101444.31
2023-01-26T21:58:09.166Z,101446.38
2023-01-26T22:00:35.970Z,101444.31
2023-01-26T22:03:02.818Z,101450.22
2023-01-26T22:05:29.477Z,101437.13
2023-01-26T22:07:56.032Z,101441.50
2023-01-26T22:10:22.537Z,101422.41
2023-01-26T22:12:49.369Z,101438.22
2023-01-26T22:15:17.416Z,101429.72
2023-01-26T22:17:43.930Z,101433.19
2023-01-26T22:20:12.111Z,101434.66
2023-01-26T22:22:38.895Z,101420.38
2023-01-26T22:25:06.191Z,101409.63
2023-01-26T22:27:32.729Z,101415.41
2023-01-26T22:29:59.349Z,101417.72
2023-01-26T22:32:27.130Z,101420.13
2023-01-26T22:34:53.664Z,101419.94
2023-01-26T22:37:22.077Z,101426.47
2023-01-26T22:39:48.625Z,101424.00
2023-01-26T22:42:15.134Z,101423.06
2023-01-26T22:44:41.782Z,101437.22
2023-01-26T22:47:08.425Z,101433.91
2023-01-26T22:49:36.281Z,101432.13
2023-01-26T22:52:02.836Z,101435.31
2023-01-26T22:54:29.340Z,101436.78
2023-01-26T22:56:55.866Z,101438.75
2023-01-26T22:59:22.369Z,101446.63
2023-01-26T23:01:49.042Z,101443.47
2023-01-26T23:04:15.609Z,101441.97
2023-01-26T23:06:43.477Z,101445.75
2023-01-26T23:09:10.044Z,101453.00
2023-01-26T23:11:36.575Z,101452.44
2023-01-26T23:14:03.428Z,101446.81
2023-01-26T23:16:30.156Z,101454.44
2023-01-26T23:18:58.275Z,101448.34
2023-01-26T23:21:25.958Z,101446.91
2023-01-26T23:23:53.847Z,101449.13
2023-01-26T23:26:20.750Z,101450.88
2023-01-26T23:28:47.671Z,101449.56
2023-01-26T23:31:15.727Z,101453.91
2023-01-26T23:33:43.018Z,101453.38
2023-01-26T23:36:11.449Z,101435.88
2023-01-26T23:38:38.245Z,101433.47
2023-01-26T23:41:06.442Z,101432.75
2023-01-26T23:43:33.019Z,101448.53
2023-01-26T23:45:59.919Z,101454.31
2023-01-26T23:48:26.878Z,101455.00
2023-01-26T23:50:56.812Z,101461.97
2023-01-26T23:53:23.724Z,101469.28
2023-01-26T23:55:50.623Z,101465.53
2023-01-26T23:58:18.928Z,101461.34
